Time;durP1;ratioP1;P1;durP2;ratioP2;P2;SDS_P1;SDS_P2;PMS_P1;PMS_P2;Temp;Humidity;BMP_temperature;BMP_pressure;BME280_temperature;BME280_humidity;BME280_pressure;Samples;Min_cycle;Max_cycle;Signal;HPM_P1;HPM_P2
2020/12/24 00:01:04;;;;;;;59.23;28.17;;;3.80;99.90;;;;;;4156183;28;20303;-43
2020/12/24 00:03:05;;;;;;;57.17;28.20;;;3.80;99.90;;;;;;4157307;28;20271;-46
2020/12/24 00:05:07;;;;;;;52.47;26.60;;;3.80;99.90;;;;;;4148440;28;20287;-43
2020/12/24 00:07:08;;;;;;;40.60;21.60;;;3.80;99.90;;;;;;4140122;28;20291;-53
2020/12/24 00:09:09;;;;;;;42.23;20.73;;;3.80;99.90;;;;;;4141349;28;20322;-42
2020/12/24 00:11:10;;;;;;;35.40;20.77;;;3.80;99.90;;;;;;4155822;28;20915;-46
2020/12/24 00:13:11;;;;;;;39.53;20.77;;;3.80;99.90;;;;;;4156626;28;20267;-45
2020/12/24 00:15:14;;;;;;;46.23;23.37;;;3.80;99.90;;;;;;4155607;28;20686;-50
2020/12/24 00:17:15;;;;;;;40.10;20.70;;;3.90;99.90;;;;;;4141114;28;20309;-41
2020/12/24 00:19:17;;;;;;;41.40;22.27;;;3.90;99.90;;;;;;4138978;28;20326;-44
2020/12/24 00:21:18;;;;;;;37.47;20.57;;;3.90;99.90;;;;;;4149060;28;20985;-45
2020/12/24 00:23:19;;;;;;;41.83;22.93;;;4.00;99.90;;;;;;4155312;28;20344;-51
2020/12/24 00:25:20;;;;;;;36.77;20.40;;;3.90;99.90;;;;;;4156441;28;20741;-44
2020/12/24 00:27:21;;;;;;;35.77;20.70;;;4.00;99.90;;;;;;4154351;28;20605;-43
2020/12/24 00:29:23;;;;;;;39.87;20.57;;;4.00;99.90;;;;;;4142253;28;20283;-41
2020/12/24 00:31:24;;;;;;;34.63;20.20;;;4.00;99.90;;;;;;4146704;28;20263;-52
2020/12/24 00:33:26;;;;;;;34.03;19.97;;;4.00;99.90;;;;;;4146091;28;20283;-44
2020/12/24 00:35:27;;;;;;;34.47;19.13;;;4.00;99.90;;;;;;4144529;28;20283;-47
2020/12/24 00:37:28;;;;;;;35.83;19.90;;;4.00;99.90;;;;;;4142807;28;20268;-46
2020/12/24 00:39:29;;;;;;;34.87;19.17;;;4.00;99.90;;;;;;4157811;28;20329;-47
2020/12/24 00:41:30;;;;;;;34.97;19.37;;;4.00;99.90;;;;;;4158927;28;20782;-46
2020/12/24 00:43:31;;;;;;;34.20;19.50;;;4.00;99.90;;;;;;4149566;28;20631;-53
2020/12/24 00:45:32;;;;;;;34.23;19.13;;;4.00;99.90;;;;;;4141772;28;20342;-45
2020/12/24 00:47:33;;;;;;;31.37;16.93;;;4.00;99.90;;;;;;4142657;28;20318;-45
2020/12/24 00:49:34;;;;;;;33.33;17.90;;;4.00;99.90;;;;;;4142011;28;20322;-44
2020/12/24 00:51:36;;;;;;;35.80;19.60;;;4.00;99.90;;;;;;4142885;28;20322;-44
2020/12/24 00:53:37;;;;;;;32.20;18.30;;;4.10;99.90;;;;;;4141607;28;20334;-43
2020/12/24 00:55:38;;;;;;;36.33;20.87;;;4.00;99.90;;;;;;4143215;28;20334;-43
2020/12/24 00:57:39;;;;;;;35.87;19.77;;;4.10;99.90;;;;;;4141109;28;20605;-44
2020/12/24 00:59:41;;;;;;;34.43;19.80;;;4.00;99.90;;;;;;4143727;28;20682;-45
2020/12/24 01:01:42;;;;;;;33.80;19.17;;;4.10;99.90;;;;;;4140826;28;20362;-47
2020/12/24 01:03:43;;;;;;;34.33;19.07;;;4.00;99.90;;;;;;4142893;28;20267;-44
2020/12/24 01:05:44;;;;;;;33.57;19.40;;;4.10;99.90;;;;;;4149682;28;20338;-42
2020/12/24 01:07:45;;;;;;;36.27;19.73;;;4.10;99.90;;;;;;4143597;28;20326;-52
2020/12/24 01:09:46;;;;;;;33.80;18.03;;;4.10;99.90;;;;;;4141229;28;20691;-45
2020/12/24 01:11:47;;;;;;;37.03;18.90;;;4.10;99.90;;;;;;4142762;28;20272;-59
2020/12/24 01:13:48;;;;;;;32.10;18.30;;;4.10;99.90;;;;;;4141885;28;20283;-47
2020/12/24 01:15:50;;;;;;;35.50;19.20;;;4.10;99.90;;;;;;4142781;28;20384;-46
2020/12/24 01:17:51;;;;;;;29.83;17.80;;;4.10;99.90;;;;;;4143169;28;20710;-47
2020/12/24 01:19:52;;;;;;;37.60;19.53;;;4.10;99.90;;;;;;4141298;28;20345;-49
2020/12/24 01:21:53;;;;;;;34.63;19.53;;;4.20;99.90;;;;;;4142680;28;20694;-44
2020/12/24 01:23:55;;;;;;;32.40;19.13;;;4.20;99.90;;;;;;4141873;28;20374;-42
2020/12/24 01:25:56;;;;;;;35.03;19.50;;;4.20;99.90;;;;;;4143152;28;20280;-43
2020/12/24 01:27:57;;;;;;;31.27;18.50;;;4.20;99.90;;;;;;4141741;28;20410;-50
2020/12/24 01:29:59;;;;;;;27.30;17.50;;;4.20;99.90;;;;;;4143116;28;20271;-50
2020/12/24 01:32:00;;;;;;;29.40;17.23;;;4.20;99.90;;;;;;4140991;28;20675;-46
2020/12/24 01:34:01;;;;;;;32.83;18.87;;;4.20;99.90;;;;;;4143450;28;20330;-52
2020/12/24 01:36:03;;;;;;;32.10;17.50;;;4.20;99.90;;;;;;4140911;28;20267;-45
2020/12/24 01:38:04;;;;;;;30.23;19.00;;;4.20;99.90;;;;;;4142590;28;20279;-52
2020/12/24 01:40:05;;;;;;;39.37;21.10;;;4.20;99.90;;;;;;4150722;28;20279;-47
2020/12/24 01:42:06;;;;;;;36.10;20.90;;;4.20;99.90;;;;;;4158511;28;20298;-42
2020/12/24 01:44:08;;;;;;;40.90;20.30;;;4.10;99.90;;;;;;4154533;28;20325;-48
2020/12/24 01:46:09;;;;;;;44.03;22.47;;;4.10;99.90;;;;;;4124494;28;20784;-49
2020/12/24 01:48:10;;;;;;;49.53;21.03;;;4.00;99.90;;;;;;4141501;28;20280;-42
2020/12/24 01:50:11;;;;;;;43.03;22.07;;;4.00;99.90;;;;;;4140504;28;20354;-45
2020/12/24 01:52:31;;;;;;;45.87;21.93;;;4.00;99.90;;;;;;4142048;28;20955;-49
2020/12/24 01:54:32;;;;;;;48.88;21.55;;;4.00;99.90;;;;;;4155486;28;20345;-43
2020/12/24 01:56:34;;;;;;;45.57;21.77;;;4.00;99.90;;;;;;4158226;28;20040;-43
2020/12/24 01:58:36;;;;;;;53.00;23.03;;;4.00;99.90;;;;;;4157649;28;20267;-44
2020/12/24 02:00:37;;;;;;;62.00;22.70;;;4.00;99.90;;;;;;4143812;28;20279;-44
2020/12/24 02:02:38;;;;;;;95.30;24.63;;;4.00;99.90;;;;;;4142137;28;20747;-49
2020/12/24 02:04:39;;;;;;;103.80;25.27;;;4.00;99.90;;;;;;4141870;28;20287;-44
2020/12/24 02:06:41;;;;;;;48.00;22.07;;;4.00;99.90;;;;;;4140441;28;20330;-45
2020/12/24 02:08:42;;;;;;;96.07;26.33;;;4.00;99.90;;;;;;4142399;28;20314;-41
2020/12/24 02:10:44;;;;;;;52.40;22.83;;;4.00;99.90;;;;;;4139458;28;20357;-42
2020/12/24 02:12:45;;;;;;;96.13;25.83;;;4.00;99.90;;;;;;4142392;28;21260;-47
2020/12/24 02:14:47;;;;;;;220.10;27.23;;;3.90;99.90;;;;;;4147624;28;20305;-46
2020/12/24 02:16:48;;;;;;;98.77;24.20;;;3.90;99.90;;;;;;4157395;28;20312;-46
2020/12/24 02:18:49;;;;;;;233.93;28.87;;;3.90;99.90;;;;;;4157681;28;20328;-48
2020/12/24 02:20:50;;;;;;;57.03;23.47;;;3.90;99.90;;;;;;4141508;28;20291;-46
2020/12/24 02:22:51;;;;;;;86.50;24.23;;;3.80;99.90;;;;;;4141959;28;20342;-44
2020/12/24 02:24:52;;;;;;;58.87;25.33;;;3.90;99.90;;;;;;4140160;28;20612;-42
2020/12/24 02:26:54;;;;;;;60.13;25.37;;;3.90;99.90;;;;;;4140894;28;20310;-43
2020/12/24 02:28:55;;;;;;;132.03;28.03;;;3.90;99.90;;;;;;4122300;28;20272;-44
2020/12/24 02:30:57;;;;;;;118.90;29.33;;;3.80;99.90;;;;;;4142323;28;20267;-42
2020/12/24 02:32:58;;;;;;;56.33;25.50;;;3.90;99.90;;;;;;4154292;28;20282;-46
2020/12/24 02:34:59;;;;;;;59.63;26.70;;;3.80;99.90;;;;;;4158195;28;20812;-51
2020/12/24 02:37:01;;;;;;;60.20;26.40;;;3.80;99.90;;;;;;4149524;28;20325;-46
2020/12/24 02:39:02;;;;;;;49.73;24.60;;;3.90;99.90;;;;;;4141153;28;20759;-53
2020/12/24 02:41:04;;;;;;;53.57;26.57;;;3.90;99.90;;;;;;4139975;28;20311;-45
2020/12/24 02:43:05;;;;;;;51.37;25.40;;;3.90;99.90;;;;;;4141235;28;20342;-47
2020/12/24 02:45:06;;;;;;;47.23;24.30;;;3.90;99.90;;;;;;4141063;28;20357;-46
2020/12/24 02:47:07;;;;;;;54.13;25.07;;;4.00;99.90;;;;;;4157614;28;20287;-43
2020/12/24 02:49:09;;;;;;;61.10;28.27;;;4.00;99.90;;;;;;4157255;28;20344;-51
2020/12/24 02:51:10;;;;;;;55.60;26.70;;;4.10;99.90;;;;;;4155593;28;20283;-45
2020/12/24 02:53:11;;;;;;;50.37;22.93;;;4.10;99.90;;;;;;4151333;28;21281;-48
2020/12/24 02:55:12;;;;;;;49.77;24.03;;;4.10;99.90;;;;;;4145270;28;20722;-43
2020/12/24 02:57:14;;;;;;;55.37;25.90;;;4.10;99.90;;;;;;4157326;28;20263;-46
2020/12/24 02:59:16;;;;;;;55.10;25.97;;;4.10;99.90;;;;;;4156591;28;20734;-45
2020/12/24 03:01:17;;;;;;;50.20;24.93;;;4.10;99.90;;;;;;4157836;28;20299;-46
2020/12/24 03:03:20;;;;;;;55.37;25.77;;;4.10;99.90;;;;;;4155306;28;20271;-43
2020/12/24 03:05:21;;;;;;;55.90;25.60;;;4.10;99.90;;;;;;4157630;28;20325;-47
2020/12/24 03:07:22;;;;;;;50.43;24.73;;;4.10;99.90;;;;;;4156211;28;20341;-45
2020/12/24 03:09:23;;;;;;;45.60;23.50;;;4.10;99.90;;;;;;4157028;28;20694;-49
2020/12/24 03:11:24;;;;;;;53.57;24.87;;;4.10;99.90;;;;;;4156781;28;20369;-43
2020/12/24 03:13:25;;;;;;;56.00;25.77;;;4.20;99.90;;;;;;4132999;28;21010;-53
2020/12/24 03:15:26;;;;;;;53.87;26.00;;;4.10;99.90;;;;;;4139229;28;20345;-48
2020/12/24 03:17:27;;;;;;;57.70;26.43;;;4.10;99.90;;;;;;4140836;28;20668;-46
2020/12/24 03:19:28;;;;;;;52.30;25.57;;;4.20;99.90;;;;;;4144648;28;20267;-43
2020/12/24 03:21:30;;;;;;;53.53;26.57;;;4.20;99.90;;;;;;4156462;28;20923;-45
2020/12/24 03:23:31;;;;;;;60.93;27.83;;;4.20;99.90;;;;;;4150146;28;20359;-43
2020/12/24 03:25:32;;;;;;;55.37;27.40;;;4.20;99.90;;;;;;4139660;28;20691;-51
2020/12/24 03:27:33;;;;;;;55.23;27.50;;;4.20;99.90;;;;;;4147323;28;20693;-52
2020/12/24 03:29:34;;;;;;;63.60;28.83;;;4.20;99.90;;;;;;4156254;28;20336;-59
2020/12/24 03:31:35;;;;;;;61.20;28.70;;;4.30;99.90;;;;;;4147232;28;20390;-46
2020/12/24 03:33:36;;;;;;;62.73;28.60;;;4.30;99.90;;;;;;4140769;28;20317;-56
2020/12/24 03:35:37;;;;;;;61.43;27.17;;;4.30;99.90;;;;;;4155108;28;20352;-45
2020/12/24 03:37:38;;;;;;;65.57;28.53;;;4.40;99.90;;;;;;4138415;28;20275;-47
2020/12/24 03:39:39;;;;;;;59.30;28.23;;;4.40;99.90;;;;;;4157051;28;20320;-52
2020/12/24 03:41:40;;;;;;;70.60;29.37;;;4.40;99.90;;;;;;4137605;28;20303;-43
2020/12/24 03:43:43;;;;;;;60.33;28.43;;;4.40;99.90;;;;;;4157059;28;20316;-48
2020/12/24 03:45:45;;;;;;;68.63;29.13;;;4.50;99.90;;;;;;4140277;28;20284;-45
2020/12/24 03:47:46;;;;;;;64.70;29.27;;;4.50;99.90;;;;;;4141144;28;20346;-45
2020/12/24 03:49:48;;;;;;;69.93;31.40;;;4.50;99.90;;;;;;4146630;28;20687;-44
2020/12/24 03:51:49;;;;;;;64.50;30.53;;;4.50;99.90;;;;;;4156967;28;20751;-50
2020/12/24 03:53:51;;;;;;;65.70;30.80;;;4.50;99.90;;;;;;4155842;28;20268;-44
2020/12/24 03:55:52;;;;;;;62.80;28.20;;;4.50;99.90;;;;;;4156485;28;20267;-47
2020/12/24 03:57:53;;;;;;;62.20;27.67;;;4.50;99.90;;;;;;4155597;28;20317;-49
2020/12/24 03:59:54;;;;;;;63.23;27.33;;;4.50;99.90;;;;;;4156186;28;20746;-46
2020/12/24 04:01:55;;;;;;;68.63;29.00;;;4.50;99.90;;;;;;4156784;28;20365;-46
2020/12/24 04:03:56;;;;;;;74.97;31.53;;;4.50;99.90;;;;;;4123504;28;20280;-49
2020/12/24 04:05:57;;;;;;;70.13;30.47;;;4.50;99.90;;;;;;4124104;28;20268;-45
2020/12/24 04:07:59;;;;;;;70.83;29.70;;;4.50;99.90;;;;;;4126605;28;20260;-44
2020/12/24 04:10:00;;;;;;;69.37;31.43;;;4.50;99.90;;;;;;4136398;28;20309;-44
2020/12/24 04:12:01;;;;;;;69.80;30.60;;;4.50;99.90;;;;;;4150972;28;20287;-45
2020/12/24 04:14:02;;;;;;;76.33;31.53;;;4.50;99.90;;;;;;4160291;28;21195;-49
2020/12/24 04:16:03;;;;;;;68.37;30.17;;;4.50;99.90;;;;;;4158492;28;20263;-47
2020/12/24 04:18:04;;;;;;;72.50;30.23;;;4.50;99.90;;;;;;4159745;28;20679;-44
2020/12/24 04:20:05;;;;;;;70.87;29.40;;;4.50;99.90;;;;;;4158816;28;20336;-43
2020/12/24 04:22:06;;;;;;;73.27;29.17;;;4.50;99.90;;;;;;4160012;28;20298;-43
2020/12/24 04:24:08;;;;;;;73.30;30.83;;;4.60;99.90;;;;;;4146047;28;20271;-42
2020/12/24 04:26:09;;;;;;;71.70;29.40;;;4.50;99.90;;;;;;4146940;28;20274;-47
2020/12/24 04:28:10;;;;;;;99.83;31.07;;;4.50;99.90;;;;;;4150279;28;20354;-52
2020/12/24 04:30:11;;;;;;;80.80;32.40;;;4.50;99.90;;;;;;4142968;28;20805;-49
2020/12/24 04:32:12;;;;;;;77.03;30.23;;;4.50;99.90;;;;;;4151589;28;20328;-54
2020/12/24 04:34:13;;;;;;;72.83;30.97;;;4.50;99.90;;;;;;4157644;28;21214;-52
2020/12/24 04:36:15;;;;;;;92.63;32.47;;;4.50;99.90;;;;;;4160164;28;20333;-45
2020/12/24 04:38:16;;;;;;;78.70;31.90;;;4.50;99.90;;;;;;4152131;28;20283;-46
2020/12/24 04:40:17;;;;;;;72.03;30.30;;;4.60;99.90;;;;;;4143460;28;20317;-58
2020/12/24 04:42:22;;;;;;;85.03;31.40;;;4.60;99.90;;;;;;4156221;28;20328;-51
2020/12/24 04:44:25;;;;;;;87.13;32.93;;;4.60;99.90;;;;;;4159452;28;20291;-46
2020/12/24 04:46:27;;;;;;;80.93;31.37;;;4.60;99.90;;;;;;4158512;28;20346;-44
2020/12/24 04:48:30;;;;;;;124.67;34.70;;;4.60;99.90;;;;;;4157294;28;20321;-47
2020/12/24 04:50:31;;;;;;;103.90;33.57;;;4.70;99.90;;;;;;4158441;28;20309;-45
2020/12/24 04:52:34;;;;;;;83.23;34.30;;;4.70;99.90;;;;;;4159240;28;20309;-57
2020/12/24 04:54:36;;;;;;;98.23;29.73;;;4.70;99.90;;;;;;4121309;28;20319;-44
2020/12/24 04:56:37;;;;;;;105.40;32.23;;;4.70;99.90;;;;;;4141887;28;21122;-43
2020/12/24 04:58:42;;;;;;;100.23;30.90;;;4.70;99.90;;;;;;4142543;28;20327;-51
2020/12/24 05:00:45;;;;;;;85.63;29.73;;;4.70;99.90;;;;;;4157779;28;20377;-53
2020/12/24 05:03:05;;;;;;;128.20;33.20;;;4.60;99.90;;;;;;4148866;28;20318;-56
2020/12/24 05:05:06;;;;;;;200.90;37.90;;;4.60;99.90;;;;;;4142474;28;20275;-47
2020/12/24 05:07:08;;;;;;;87.43;30.70;;;4.60;99.90;;;;;;4141570;28;20810;-50
2020/12/24 05:09:09;;;;;;;79.47;31.60;;;4.60;99.90;;;;;;4141827;28;20279;-44
2020/12/24 05:11:11;;;;;;;106.47;31.27;;;4.60;99.90;;;;;;4142395;28;20295;-52
2020/12/24 05:13:19;;;;;;;119.50;32.80;;;4.60;99.90;;;;;;4123685;28;20327;-43
2020/12/24 05:15:30;;;;;;;89.33;30.23;;;4.60;99.90;;;;;;4153662;28;20283;-48
2020/12/24 05:17:31;;;;;;;88.73;30.57;;;4.60;99.90;;;;;;4157386;28;20684;-51
2020/12/24 05:19:34;;;;;;;90.47;31.87;;;4.60;99.90;;;;;;4156944;28;20349;-54
2020/12/24 05:21:38;;;;;;;103.90;32.97;;;4.70;99.90;;;;;;4141200;28;20803;-49
2020/12/24 05:23:40;;;;;;;85.43;30.03;;;4.70;99.90;;;;;;4142958;28;20671;-55
2020/12/24 05:25:42;;;;;;;92.60;30.33;;;4.80;99.90;;;;;;4146936;28;20283;-43
2020/12/24 05:27:43;;;;;;;99.77;30.20;;;4.80;99.90;;;;;;4137366;28;20314;-49
2020/12/24 05:29:46;;;;;;;84.50;30.50;;;4.70;99.90;;;;;;4148154;28;20713;-44
2020/12/24 05:31:51;;;;;;;91.10;31.23;;;4.70;99.90;;;;;;4157695;28;20366;-47
2020/12/24 05:33:52;;;;;;;72.83;29.73;;;4.80;99.90;;;;;;4139544;28;20732;-46
2020/12/24 05:36:12;;;;;;;75.50;30.87;;;4.70;99.90;;;;;;4157224;28;20340;-45
2020/12/24 05:38:30;;;;;;;72.80;28.73;;;4.80;99.90;;;;;;4156846;28;20266;-44
2020/12/24 05:40:32;;;;;;;82.33;31.97;;;4.80;99.90;;;;;;4156585;28;20282;-42
2020/12/24 05:42:49;;;;;;;69.60;29.57;;;4.80;99.90;;;;;;4141335;28;20615;-51
2020/12/24 05:44:51;;;;;;;68.83;29.93;;;4.70;99.90;;;;;;4142185;28;20671;-51
2020/12/24 05:46:52;;;;;;;63.93;28.33;;;4.80;99.90;;;;;;4141143;28;20283;-46
2020/12/24 05:48:54;;;;;;;60.90;27.73;;;4.70;99.90;;;;;;4142912;28;20275;-45
2020/12/24 05:50:55;;;;;;;68.17;28.03;;;4.80;99.90;;;;;;4140441;28;20280;-44
2020/12/24 05:53:07;;;;;;;66.53;27.10;;;4.80;99.90;;;;;;4141106;28;20329;-46
2020/12/24 05:55:09;;;;;;;86.17;29.17;;;4.80;99.90;;;;;;4145055;28;20291;-49
2020/12/24 05:57:12;;;;;;;79.67;30.00;;;4.80;99.90;;;;;;4141619;28;20275;-49
2020/12/24 05:59:16;;;;;;;84.97;28.33;;;4.80;99.90;;;;;;4140441;28;20306;-52
2020/12/24 06:01:17;;;;;;;85.27;29.37;;;4.80;99.90;;;;;;4125253;28;20327;-52
2020/12/24 06:03:20;;;;;;;98.97;29.77;;;4.80;99.90;;;;;;4135747;28;20283;-54
2020/12/24 06:05:28;;;;;;;68.23;27.17;;;4.80;99.90;;;;;;4141666;28;20287;-46
2020/12/24 06:07:31;;;;;;;69.80;28.37;;;4.80;99.90;;;;;;4140807;28;20271;-51
2020/12/24 06:09:37;;;;;;;58.67;25.80;;;4.80;99.90;;;;;;4152154;28;20328;-51
2020/12/24 06:11:44;;;;;;;115.67;29.23;;;4.80;99.90;;;;;;4157598;28;20923;-50
2020/12/24 06:13:52;;;;;;;179.80;33.20;;;4.90;99.90;;;;;;4156735;28;20821;-47
2020/12/24 06:15:57;;;;;;;129.97;28.90;;;4.90;99.90;;;;;;4146490;28;20356;-48
2020/12/24 06:18:01;;;;;;;139.63;27.20;;;4.90;99.90;;;;;;4140091;28;20613;-48
2020/12/24 06:20:05;;;;;;;67.70;26.77;;;4.80;99.90;;;;;;4142811;28;20283;-53
2020/12/24 06:22:06;;;;;;;63.17;22.87;;;4.80;99.90;;;;;;4154725;28;20299;-54
2020/12/24 06:24:09;;;;;;;72.77;25.80;;;4.80;99.90;;;;;;4156922;28;20352;-48
2020/12/24 06:26:14;;;;;;;94.93;27.37;;;4.80;99.90;;;;;;4156304;28;20279;-49
2020/12/24 06:28:16;;;;;;;120.90;32.10;;;4.80;99.90;;;;;;4157537;28;20295;-50
2020/12/24 06:30:23;;;;;;;184.37;36.17;;;4.80;99.90;;;;;;4145732;28;20285;-49
2020/12/24 06:32:25;;;;;;;167.03;31.80;;;4.80;99.90;;;;;;4149919;28;20278;-53
2020/12/24 06:34:31;;;;;;;220.63;35.70;;;4.80;99.90;;;;;;4144444;28;20620;-58
2020/12/24 06:36:37;;;;;;;161.40;30.30;;;4.80;99.90;;;;;;4148805;28;20324;-46
2020/12/24 06:38:46;;;;;;;166.43;28.60;;;4.80;99.90;;;;;;4142059;28;20283;-48
2020/12/24 06:40:47;;;;;;;184.03;30.33;;;4.80;99.90;;;;;;4146236;28;20821;-45
2020/12/24 06:42:51;;;;;;;184.53;33.83;;;4.80;99.90;;;;;;4156013;28;20352;-50
2020/12/24 06:44:52;;;;;;;262.00;35.07;;;4.80;99.90;;;;;;4157608;28;20870;-46
2020/12/24 06:47:00;;;;;;;165.50;30.00;;;4.70;99.90;;;;;;4155997;28;20267;-47
2020/12/24 06:49:05;;;;;;;118.87;27.50;;;4.70;99.90;;;;;;4145616;28;20342;-46
2020/12/24 06:51:06;;;;;;;146.27;27.77;;;4.70;99.90;;;;;;4140547;28;20321;-46
2020/12/24 06:53:26;;;;;;;109.30;28.50;;;4.80;99.90;;;;;;4140595;28;20313;-45
2020/12/24 06:55:27;;;;;;;161.43;29.43;;;4.80;99.90;;;;;;4140296;28;20280;-46
2020/12/24 06:57:37;;;;;;;81.23;27.43;;;4.80;99.90;;;;;;4141076;28;20275;-57
2020/12/24 06:59:38;;;;;;;182.97;33.70;;;4.80;99.90;;;;;;4140736;28;20298;-54
2020/12/24 07:01:40;;;;;;;158.20;30.50;;;4.80;99.90;;;;;;4139557;28;20318;-46
2020/12/24 07:03:42;;;;;;;147.93;31.67;;;4.80;99.90;;;;;;4140998;28;20271;-43
2020/12/24 07:05:44;;;;;;;132.93;28.70;;;4.80;99.90;;;;;;4139922;28;20263;-43
2020/12/24 07:07:46;;;;;;;181.80;35.53;;;4.80;99.90;;;;;;4140992;28;20330;-52
2020/12/24 07:09:47;;;;;;;189.73;31.07;;;4.80;99.90;;;;;;4138948;28;21446;-50
2020/12/24 07:11:50;;;;;;;128.50;30.63;;;4.80;99.90;;;;;;4140573;28;20349;-42
2020/12/24 07:13:52;;;;;;;168.60;33.33;;;4.80;99.90;;;;;;4139714;28;20326;-46
2020/12/24 07:15:55;;;;;;;148.37;31.80;;;4.80;99.90;;;;;;4123006;28;20264;-41
2020/12/24 07:17:56;;;;;;;197.53;35.47;;;4.80;99.90;;;;;;4138656;28;20322;-44
2020/12/24 07:20:00;;;;;;;113.07;28.20;;;4.90;99.90;;;;;;4140656;28;20271;-50
2020/12/24 07:22:15;;;;;;;137.73;30.27;;;4.90;99.90;;;;;;4138202;28;20365;-55
2020/12/24 07:24:27;;;;;;;220.10;35.37;;;4.80;99.90;;;;;;4153846;28;20291;-46
2020/12/24 07:26:29;;;;;;;248.70;41.80;;;4.80;99.90;;;;;;4155920;28;20336;-48
2020/12/24 07:28:36;;;;;;;195.80;34.30;;;4.80;99.90;;;;;;4157258;28;20800;-49
2020/12/24 07:30:37;;;;;;;265.10;36.43;;;4.80;99.90;;;;;;4153202;28;20845;-51
2020/12/24 07:32:39;;;;;;;259.60;40.60;;;4.80;99.90;;;;;;4152046;28;20345;-52
2020/12/24 07:34:40;;;;;;;157.17;32.97;;;4.80;99.90;;;;;;4155177;28;20275;-51
2020/12/24 07:36:45;;;;;;;188.07;32.40;;;4.80;99.90;;;;;;4157021;28;20271;-54
2020/12/24 07:38:46;;;;;;;142.63;30.70;;;4.70;99.90;;;;;;4155061;28;20313;-48
2020/12/24 07:40:47;;;;;;;222.70;33.70;;;4.70;99.90;;;;;;4156516;28;20263;-46
2020/12/24 07:42:48;;;;;;;202.90;38.00;;;4.70;99.90;;;;;;4141747;28;20338;-44
2020/12/24 07:44:49;;;;;;;205.23;40.63;;;4.80;99.90;;;;;;4158140;28;21111;-44
2020/12/24 07:46:51;;;;;;;325.20;45.17;;;4.70;99.90;;;;;;4159250;28;20271;-44
2020/12/24 07:49:00;;;;;;;166.73;32.10;;;4.70;99.90;;;;;;4158638;28;20270;-42
2020/12/24 07:51:08;;;;;;;208.10;35.37;;;4.80;99.90;;;;;;4159734;28;20289;-45
2020/12/24 07:53:10;;;;;;;112.40;30.87;;;4.80;99.90;;;;;;4158761;28;20340;-50
2020/12/24 07:55:11;;;;;;;217.37;34.43;;;4.80;99.90;;;;;;4158953;28;20845;-45
2020/12/24 07:57:26;;;;;;;123.00;32.97;;;4.80;99.90;;;;;;4158356;28;20275;-45
2020/12/24 07:59:27;;;;;;;188.07;34.07;;;4.80;99.90;;;;;;4159949;28;20372;-51
2020/12/24 08:01:28;;;;;;;234.00;33.73;;;4.70;99.90;;;;;;4157255;28;20266;-51
2020/12/24 08:03:29;;;;;;;245.93;33.10;;;4.70;99.90;;;;;;4159983;28;20294;-53
2020/12/24 08:05:30;;;;;;;170.80;31.30;;;4.70;99.90;;;;;;4158115;28;21152;-52
2020/12/24 08:07:32;;;;;;;353.07;48.77;;;4.70;99.90;;;;;;4159437;28;20286;-49
2020/12/24 08:09:33;;;;;;;163.90;33.20;;;4.70;99.90;;;;;;4143262;28;20333;-56
2020/12/24 08:11:35;;;;;;;248.50;37.77;;;4.70;99.90;;;;;;4142473;28;20358;-53
2020/12/24 08:13:36;;;;;;;172.13;33.07;;;4.70;99.90;;;;;;4141634;28;20700;-42
2020/12/24 08:15:46;;;;;;;239.17;36.53;;;4.60;99.90;;;;;;4143109;28;20674;-53
2020/12/24 08:18:05;;;;;;;131.47;29.90;;;4.60;99.90;;;;;;4141328;28;20287;-57
2020/12/24 08:20:08;;;;;;;78.30;26.20;;;4.60;99.90;;;;;;4144192;28;20295;-53
2020/12/24 08:22:24;;;;;;;62.43;26.50;;;4.60;99.90;;;;;;4142087;28;20263;-42
2020/12/24 08:24:26;;;;;;;58.73;27.17;;;4.60;99.90;;;;;;4143114;28;20294;-45
2020/12/24 08:26:27;;;;;;;65.83;27.23;;;4.70;99.90;;;;;;4141128;28;20822;-50
2020/12/24 08:28:29;;;;;;;58.40;26.03;;;4.70;99.90;;;;;;4142770;28;20318;-46
2020/12/24 08:30:31;;;;;;;57.97;26.33;;;4.70;99.90;;;;;;4141685;28;21070;-50
2020/12/24 08:32:33;;;;;;;53.90;25.73;;;4.70;99.90;;;;;;4142223;28;20343;-57
2020/12/24 08:34:34;;;;;;;55.57;26.63;;;4.70;99.90;;;;;;4143440;28;20287;-52
2020/12/24 08:36:46;;;;;;;48.20;23.67;;;4.70;99.90;;;;;;4140866;28;20283;-52
2020/12/24 08:38:49;;;;;;;49.57;23.67;;;4.70;99.90;;;;;;4142248;28;20263;-55
2020/12/24 08:40:50;;;;;;;52.33;26.87;;;4.70;99.90;;;;;;4141826;28;20568;-46
2020/12/24 08:43:00;;;;;;;54.83;26.53;;;4.80;99.90;;;;;;4142244;28;20303;-47
2020/12/24 08:45:01;;;;;;;57.30;25.98;;;4.80;99.90;;;;;;4141364;28;20279;-48
2020/12/24 08:47:08;;;;;;;53.30;25.87;;;4.80;99.90;;;;;;4142887;28;20355;-49
2020/12/24 08:49:22;;;;;;;54.73;26.10;;;4.80;99.90;;;;;;4140610;28;20279;-51
2020/12/24 08:51:23;;;;;;;64.57;26.80;;;4.80;99.90;;;;;;4142468;28;20275;-56
2020/12/24 08:53:25;;;;;;;70.33;27.03;;;4.90;99.90;;;;;;4142227;28;20275;-53
2020/12/24 08:55:28;;;;;;;87.43;28.00;;;4.90;99.90;;;;;;4142115;28;20671;-54
2020/12/24 08:57:29;;;;;;;63.87;27.47;;;4.90;99.90;;;;;;4140838;28;20679;-52
2020/12/24 08:59:30;;;;;;;69.50;28.83;;;4.90;99.90;;;;;;4142202;28;20353;-49
2020/12/24 09:01:41;;;;;;;68.63;27.30;;;4.90;99.90;;;;;;4140318;28;20276;-49
2020/12/24 09:03:43;;;;;;;61.65;24.95;;;4.90;99.90;;;;;;4142459;28;20342;-45
2020/12/24 09:05:44;;;;;;;57.13;26.33;;;4.90;99.90;;;;;;4142313;28;20540;-50
2020/12/24 09:07:45;;;;;;;53.27;24.23;;;4.90;99.90;;;;;;4141484;28;20383;-52
2020/12/24 09:09:46;;;;;;;54.77;24.30;;;4.90;99.90;;;;;;4142234;28;20829;-49
2020/12/24 09:11:47;;;;;;;84.93;28.43;;;4.90;99.90;;;;;;4151332;28;20364;-52
2020/12/24 09:13:58;;;;;;;80.57;26.43;;;5.00;99.90;;;;;;4126002;28;20291;-52
2020/12/24 09:16:09;;;;;;;63.85;26.17;;;4.90;99.90;;;;;;4149998;28;20809;-51
2020/12/24 09:18:11;;;;;;;68.40;26.23;;;4.90;99.90;;;;;;4141965;28;20088;-49
2020/12/24 09:20:12;;;;;;;73.93;27.37;;;4.90;99.90;;;;;;4145875;28;20282;-52
2020/12/24 09:22:14;;;;;;;79.10;28.50;;;4.90;99.90;;;;;;4141868;28;20349;-48
2020/12/24 09:24:15;;;;;;;104.93;29.87;;;4.90;99.90;;;;;;4123245;28;20337;-52
2020/12/24 09:26:16;;;;;;;63.23;28.23;;;4.90;99.90;;;;;;4142669;28;20271;-48
2020/12/24 09:28:24;;;;;;;65.20;28.33;;;4.90;99.90;;;;;;4140522;28;20691;-48
2020/12/24 09:30:25;;;;;;;60.73;27.67;;;4.90;99.90;;;;;;4142700;28;20740;-53
2020/12/24 09:32:27;;;;;;;65.10;28.93;;;4.90;99.90;;;;;;4140050;28;20325;-43
2020/12/24 09:34:29;;;;;;;70.03;29.97;;;5.00;99.90;;;;;;4142443;28;20746;-50
2020/12/24 09:36:30;;;;;;;60.83;25.50;;;5.00;99.90;;;;;;4141726;28;20263;-48
2020/12/24 09:38:31;;;;;;;67.33;28.57;;;5.00;99.90;;;;;;4142742;28;20268;-51
2020/12/24 09:40:33;;;;;;;83.50;29.27;;;5.00;99.90;;;;;;4142521;28;20274;-49
2020/12/24 09:42:34;;;;;;;64.93;29.40;;;5.00;99.90;;;;;;4142825;28;20287;-51
2020/12/24 09:44:35;;;;;;;72.07;28.80;;;5.00;99.90;;;;;;4140735;28;20279;-50
2020/12/24 09:46:37;;;;;;;68.33;28.53;;;5.00;99.90;;;;;;4142689;28;20709;-48
2020/12/24 09:48:38;;;;;;;73.20;32.27;;;5.10;99.90;;;;;;4139936;28;20322;-50
2020/12/24 09:50:40;;;;;;;75.17;32.50;;;5.10;99.90;;;;;;4141780;28;20394;-48
2020/12/24 09:52:42;;;;;;;84.43;31.80;;;5.20;99.90;;;;;;4140749;28;20346;-48
2020/12/24 09:54:43;;;;;;;66.53;29.57;;;5.20;99.90;;;;;;4141650;28;20341;-52
2020/12/24 09:56:44;;;;;;;72.17;29.93;;;5.20;99.90;;;;;;4140758;28;20252;-53
2020/12/24 09:58:45;;;;;;;67.90;28.10;;;5.20;99.90;;;;;;4140856;28;20251;-50
2020/12/24 10:00:46;;;;;;;70.33;29.47;;;5.20;99.90;;;;;;4142090;28;21035;-50
2020/12/24 10:02:47;;;;;;;64.37;28.03;;;5.30;99.90;;;;;;4140898;28;20287;-52
2020/12/24 10:04:49;;;;;;;60.67;27.63;;;5.30;99.90;;;;;;4141709;28;20294;-50
2020/12/24 10:06:50;;;;;;;65.83;28.97;;;5.30;99.90;;;;;;4140878;28;20263;-55
2020/12/24 10:08:51;;;;;;;70.67;29.77;;;5.30;99.90;;;;;;4142120;28;20791;-50
2020/12/24 10:10:52;;;;;;;64.33;28.67;;;5.40;99.90;;;;;;4140550;28;20317;-57
2020/12/24 10:12:53;;;;;;;60.10;27.67;;;5.40;99.90;;;;;;4141670;28;20280;-48
2020/12/24 10:14:55;;;;;;;53.63;25.53;;;5.50;99.90;;;;;;4140463;28;20326;-52
2020/12/24 10:16:56;;;;;;;57.57;26.53;;;5.50;99.90;;;;;;4141442;28;20712;-45
2020/12/24 10:18:57;;;;;;;63.83;30.43;;;5.50;99.90;;;;;;4141057;28;20589;-48
2020/12/24 10:20:58;;;;;;;52.33;26.93;;;5.60;99.90;;;;;;4142466;28;20325;-50
2020/12/24 10:22:59;;;;;;;61.83;29.43;;;5.60;99.90;;;;;;4123079;28;20386;-52
2020/12/24 10:25:00;;;;;;;50.37;27.37;;;5.70;99.90;;;;;;4123360;28;20108;-43
2020/12/24 10:27:02;;;;;;;56.17;26.47;;;5.70;99.90;;;;;;4140133;28;20041;-50
2020/12/24 10:29:03;;;;;;;55.40;27.40;;;5.80;99.90;;;;;;4140198;28;20271;-50